Aeroporto :
LOGIN :

Iscrizione | Disclaimer

   EN    FR    IT 

 










Sommario :    VFR   VFR Marginale   IFR   IFR Intensivo   IFR Molto Intensivo
Visibilità : 
Base nubi : 
>= 8 km
>= 3000ft
5 / 8 km
1000 / 3000 ft
1500m / 5 km
500 / 1000 ft
800 / 1500m
200 / 500 ft
< 800m
< 200 ft
Simboli :   Temporali  Nebbia  Neve Forte  Precipitazioni Forti  Vento > 20 kt
SIGMETs :   Varie  Temporali  Ghiacco  Turbolenza  Onda orograficha  Ceneri Vulcaniche






- Altitudine del aeroporto : 90 ft
- Codice IATA : NTE


LFRS - Nantes

ULTIMO METAR :
  • 200130Z AUTO 07007KT 7000 NSC 02/01 Q1013

METARs OBSOLETI :
  • 200100Z AUTO 07007KT 7000 NSC 02/02 Q1013 TEMPO 2000 BR BKN002
  • 200030Z AUTO 08007KT 8000 NSC 03/02 Q1014 TEMPO 2000 BR BKN002
  • 200000Z AUTO 08006KT 7000 NSC 03/02 Q1014 TEMPO 2000 BR BKN002
  • 192330Z AUTO 07005KT 5000 BR NSC 03/03 Q1014 TEMPO 2000 BR BKN002
  • 192300Z AUTO 07003KT 5000 BR NSC 04/03 Q1015 TEMPO 2000 BKN002

TAF AMD TAF LFRS
Valido dal 20 a 00 ore il 21 a 06 ore UTC


200023Z 2000/2106 13004KT 6000 NSC
BECMG 2000/2002 4000 BR
TEMPO 2000/2006 2000 BR BKN002
BECMG 2010/2013 9999 NSW SCT020
BECMG 2100/2103 -RA BKN013
TEMPO 2103/2106 3000 RA BKN008
ATIS : +33 2 40 05 12 74



MetMap, La meteo Aeronautica in un colpo d'occhio ! - Copyright ORBIFLY Dicembre 2007 - Disclaimer

ORBIFLY MET'MAP TEAM :

Programmazione e sviluppo : Alexandra Zaïnal
Concezione e sviluppo : Baudouin d'Aumeries
Co-Programmazione e sviluppo : Marc-Olivier Méhu
Supporto tecnico e logistico : Manuel Goepfert
Aiuto per la traduzione : Arnaldo La Scala

Contatto : metmap@orbifly.com




FONTI E CREDITI :

   NOAA